sensor_id;sensor_type;location;lat;lon;timestamp;P1;durP1;ratioP1;P2;durP2;ratioP2
12120;SDS011;6124;59.460;17.908;2023-06-14T00:01:54;7.03;;;4.40;;
12120;SDS011;6124;59.460;17.908;2023-06-14T00:04:22;9.87;;;4.80;;
12120;SDS011;6124;59.460;17.908;2023-06-14T00:06:51;7.97;;;4.80;;
12120;SDS011;6124;59.460;17.908;2023-06-14T00:09:21;7.37;;;4.90;;
12120;SDS011;6124;59.460;17.908;2023-06-14T00:11:49;5.03;;;4.37;;
12120;SDS011;6124;59.460;17.908;2023-06-14T00:14:16;8.20;;;4.47;;
12120;SDS011;6124;59.460;17.908;2023-06-14T00:16:43;5.67;;;4.20;;
12120;SDS011;6124;59.460;17.908;2023-06-14T00:19:11;6.57;;;4.43;;
12120;SDS011;6124;59.460;17.908;2023-06-14T00:21:38;9.67;;;4.67;;
12120;SDS011;6124;59.460;17.908;2023-06-14T00:24:07;7.50;;;4.33;;
12120;SDS011;6124;59.460;17.908;2023-06-14T00:26:34;8.30;;;4.80;;
12120;SDS011;6124;59.460;17.908;2023-06-14T00:29:02;5.80;;;4.20;;
12120;SDS011;6124;59.460;17.908;2023-06-14T00:31:29;6.23;;;4.00;;
12120;SDS011;6124;59.460;17.908;2023-06-14T00:33:56;5.63;;;4.67;;
12120;SDS011;6124;59.460;17.908;2023-06-14T00:36:24;6.53;;;4.53;;
12120;SDS011;6124;59.460;17.908;2023-06-14T00:38:51;7.67;;;4.67;;
12120;SDS011;6124;59.460;17.908;2023-06-14T00:41:20;8.03;;;4.30;;
12120;SDS011;6124;59.460;17.908;2023-06-14T00:43:47;7.07;;;4.30;;
12120;SDS011;6124;59.460;17.908;2023-06-14T00:46:15;5.73;;;4.13;;
12120;SDS011;6124;59.460;17.908;2023-06-14T00:48:42;8.33;;;4.30;;
12120;SDS011;6124;59.460;17.908;2023-06-14T00:51:09;5.70;;;4.23;;
12120;SDS011;6124;59.460;17.908;2023-06-14T00:53:37;5.93;;;4.07;;
12120;SDS011;6124;59.460;17.908;2023-06-14T00:56:05;6.83;;;4.43;;
12120;SDS011;6124;59.460;17.908;2023-06-14T00:58:33;6.37;;;4.33;;
12120;SDS011;6124;59.460;17.908;2023-06-14T01:01:01;6.87;;;4.67;;
12120;SDS011;6124;59.460;17.908;2023-06-14T01:03:29;5.03;;;4.00;;
12120;SDS011;6124;59.460;17.908;2023-06-14T01:05:59;6.77;;;4.17;;
12120;SDS011;6124;59.460;17.908;2023-06-14T01:08:30;6.17;;;4.37;;
12120;SDS011;6124;59.460;17.908;2023-06-14T01:11:01;7.27;;;4.40;;
12120;SDS011;6124;59.460;17.908;2023-06-14T01:13:32;7.23;;;4.50;;
12120;SDS011;6124;59.460;17.908;2023-06-14T01:16:01;7.07;;;4.70;;
12120;SDS011;6124;59.460;17.908;2023-06-14T01:18:29;5.97;;;4.20;;
12120;SDS011;6124;59.460;17.908;2023-06-14T01:20:57;7.00;;;4.37;;
12120;SDS011;6124;59.460;17.908;2023-06-14T01:23:26;10.07;;;4.63;;
12120;SDS011;6124;59.460;17.908;2023-06-14T01:25:57;6.50;;;4.07;;
12120;SDS011;6124;59.460;17.908;2023-06-14T01:28:25;5.23;;;4.10;;
12120;SDS011;6124;59.460;17.908;2023-06-14T01:30:57;5.90;;;4.40;;
12120;SDS011;6124;59.460;17.908;2023-06-14T01:33:29;5.00;;;4.13;;
12120;SDS011;6124;59.460;17.908;2023-06-14T01:35:58;7.87;;;4.70;;
12120;SDS011;6124;59.460;17.908;2023-06-14T01:38:27;6.97;;;4.63;;
12120;SDS011;6124;59.460;17.908;2023-06-14T01:40:55;6.20;;;4.37;;
12120;SDS011;6124;59.460;17.908;2023-06-14T01:43:24;6.50;;;4.00;;
12120;SDS011;6124;59.460;17.908;2023-06-14T01:45:52;5.23;;;4.40;;
12120;SDS011;6124;59.460;17.908;2023-06-14T01:48:20;5.73;;;4.20;;
12120;SDS011;6124;59.460;17.908;2023-06-14T01:50:48;6.73;;;4.53;;
12120;SDS011;6124;59.460;17.908;2023-06-14T01:53:15;7.73;;;4.40;;
12120;SDS011;6124;59.460;17.908;2023-06-14T01:55:44;5.90;;;4.30;;
12120;SDS011;6124;59.460;17.908;2023-06-14T01:58:13;4.40;;;3.70;;
12120;SDS011;6124;59.460;17.908;2023-06-14T02:00:42;5.07;;;3.77;;
12120;SDS011;6124;59.460;17.908;2023-06-14T02:03:10;10.93;;;4.57;;
12120;SDS011;6124;59.460;17.908;2023-06-14T02:05:38;5.53;;;4.13;;
12120;SDS011;6124;59.460;17.908;2023-06-14T02:08:05;5.93;;;4.50;;
12120;SDS011;6124;59.460;17.908;2023-06-14T02:10:33;6.97;;;4.43;;
12120;SDS011;6124;59.460;17.908;2023-06-14T02:13:01;6.03;;;4.30;;
12120;SDS011;6124;59.460;17.908;2023-06-14T02:15:29;6.20;;;4.47;;
12120;SDS011;6124;59.460;17.908;2023-06-14T02:17:59;6.93;;;4.13;;
12120;SDS011;6124;59.460;17.908;2023-06-14T02:20:27;8.60;;;4.33;;
12120;SDS011;6124;59.460;17.908;2023-06-14T02:22:54;6.67;;;4.50;;
12120;SDS011;6124;59.460;17.908;2023-06-14T02:25:22;8.10;;;4.37;;
12120;SDS011;6124;59.460;17.908;2023-06-14T02:27:49;7.90;;;4.57;;
12120;SDS011;6124;59.460;17.908;2023-06-14T02:30:18;6.30;;;4.53;;
12120;SDS011;6124;59.460;17.908;2023-06-14T02:32:45;5.33;;;4.47;;
12120;SDS011;6124;59.460;17.908;2023-06-14T02:35:13;7.17;;;4.37;;
12120;SDS011;6124;59.460;17.908;2023-06-14T02:37:41;7.33;;;4.33;;
12120;SDS011;6124;59.460;17.908;2023-06-14T02:40:09;6.80;;;4.23;;
12120;SDS011;6124;59.460;17.908;2023-06-14T02:42:36;5.70;;;3.70;;
12120;SDS011;6124;59.460;17.908;2023-06-14T02:45:04;5.17;;;4.13;;
12120;SDS011;6124;59.460;17.908;2023-06-14T02:47:33;7.17;;;4.30;;
12120;SDS011;6124;59.460;17.908;2023-06-14T02:50:00;6.97;;;4.00;;
12120;SDS011;6124;59.460;17.908;2023-06-14T02:52:27;6.20;;;3.90;;
12120;SDS011;6124;59.460;17.908;2023-06-14T02:54:55;6.47;;;4.47;;
12120;SDS011;6124;59.460;17.908;2023-06-14T02:57:22;5.83;;;4.00;;
12120;SDS011;6124;59.460;17.908;2023-06-14T02:59:49;6.80;;;4.50;;
12120;SDS011;6124;59.460;17.908;2023-06-14T03:02:17;4.37;;;3.97;;
12120;SDS011;6124;59.460;17.908;2023-06-14T03:04:46;5.47;;;4.53;;
12120;SDS011;6124;59.460;17.908;2023-06-14T03:07:13;7.47;;;4.60;;
12120;SDS011;6124;59.460;17.908;2023-06-14T03:09:44;7.57;;;4.50;;
12120;SDS011;6124;59.460;17.908;2023-06-14T03:12:13;6.13;;;4.27;;
12120;SDS011;6124;59.460;17.908;2023-06-14T03:14:41;4.90;;;4.23;;
12120;SDS011;6124;59.460;17.908;2023-06-14T03:17:11;6.30;;;4.47;;
12120;SDS011;6124;59.460;17.908;2023-06-14T03:19:39;6.80;;;4.07;;
12120;SDS011;6124;59.460;17.908;2023-06-14T03:22:08;6.10;;;4.50;;
12120;SDS011;6124;59.460;17.908;2023-06-14T03:24:36;5.83;;;4.60;;
12120;SDS011;6124;59.460;17.908;2023-06-14T03:27:05;5.87;;;4.40;;
12120;SDS011;6124;59.460;17.908;2023-06-14T03:29:32;10.17;;;5.23;;
12120;SDS011;6124;59.460;17.908;2023-06-14T03:32:00;6.60;;;4.83;;
12120;SDS011;6124;59.460;17.908;2023-06-14T03:34:27;6.87;;;4.83;;
12120;SDS011;6124;59.460;17.908;2023-06-14T03:36:55;7.80;;;4.87;;
12120;SDS011;6124;59.460;17.908;2023-06-14T03:39:24;8.57;;;4.90;;
12120;SDS011;6124;59.460;17.908;2023-06-14T03:41:51;7.90;;;4.30;;
12120;SDS011;6124;59.460;17.908;2023-06-14T03:44:18;9.23;;;4.87;;
12120;SDS011;6124;59.460;17.908;2023-06-14T03:46:46;8.60;;;4.77;;
12120;SDS011;6124;59.460;17.908;2023-06-14T03:49:13;6.57;;;4.47;;
12120;SDS011;6124;59.460;17.908;2023-06-14T03:51:42;6.47;;;4.50;;
12120;SDS011;6124;59.460;17.908;2023-06-14T03:54:10;6.57;;;4.57;;
12120;SDS011;6124;59.460;17.908;2023-06-14T03:56:38;7.03;;;4.30;;
12120;SDS011;6124;59.460;17.908;2023-06-14T03:59:06;7.03;;;4.23;;
12120;SDS011;6124;59.460;17.908;2023-06-14T04:01:33;6.57;;;4.13;;
12120;SDS011;6124;59.460;17.908;2023-06-14T04:04:00;7.13;;;5.00;;
12120;SDS011;6124;59.460;17.908;2023-06-14T04:06:27;6.17;;;4.37;;
12120;SDS011;6124;59.460;17.908;2023-06-14T04:08:58;6.23;;;4.70;;
12120;SDS011;6124;59.460;17.908;2023-06-14T04:11:29;6.00;;;4.40;;
12120;SDS011;6124;59.460;17.908;2023-06-14T04:13:57;6.90;;;4.80;;
12120;SDS011;6124;59.460;17.908;2023-06-14T04:16:25;9.07;;;4.73;;
12120;SDS011;6124;59.460;17.908;2023-06-14T04:18:54;6.00;;;4.30;;
12120;SDS011;6124;59.460;17.908;2023-06-14T04:21:23;6.73;;;4.40;;
12120;SDS011;6124;59.460;17.908;2023-06-14T04:23:51;5.93;;;4.60;;
12120;SDS011;6124;59.460;17.908;2023-06-14T04:26:20;8.20;;;4.50;;
12120;SDS011;6124;59.460;17.908;2023-06-14T04:28:48;7.80;;;4.70;;
12120;SDS011;6124;59.460;17.908;2023-06-14T04:31:17;8.73;;;4.97;;
12120;SDS011;6124;59.460;17.908;2023-06-14T04:33:46;7.73;;;5.13;;
12120;SDS011;6124;59.460;17.908;2023-06-14T04:36:15;9.23;;;5.20;;
12120;SDS011;6124;59.460;17.908;2023-06-14T04:38:43;6.93;;;4.83;;
12120;SDS011;6124;59.460;17.908;2023-06-14T04:41:11;8.00;;;4.67;;
12120;SDS011;6124;59.460;17.908;2023-06-14T04:43:38;8.67;;;4.43;;
12120;SDS011;6124;59.460;17.908;2023-06-14T04:46:08;7.10;;;4.70;;
12120;SDS011;6124;59.460;17.908;2023-06-14T04:48:38;6.57;;;4.60;;
12120;SDS011;6124;59.460;17.908;2023-06-14T04:51:06;6.93;;;4.20;;
12120;SDS011;6124;59.460;17.908;2023-06-14T04:53:33;7.70;;;5.10;;
12120;SDS011;6124;59.460;17.908;2023-06-14T04:56:01;7.33;;;4.23;;
12120;SDS011;6124;59.460;17.908;2023-06-14T04:58:29;9.03;;;4.50;;
12120;SDS011;6124;59.460;17.908;2023-06-14T05:00:56;6.87;;;4.53;;
12120;SDS011;6124;59.460;17.908;2023-06-14T05:03:24;7.90;;;3.90;;
12120;SDS011;6124;59.460;17.908;2023-06-14T05:05:54;8.17;;;4.53;;
12120;SDS011;6124;59.460;17.908;2023-06-14T05:08:21;5.67;;;3.83;;
12120;SDS011;6124;59.460;17.908;2023-06-14T05:10:49;5.47;;;3.97;;
12120;SDS011;6124;59.460;17.908;2023-06-14T05:13:17;5.47;;;3.90;;
12120;SDS011;6124;59.460;17.908;2023-06-14T05:15:44;5.87;;;3.83;;
12120;SDS011;6124;59.460;17.908;2023-06-14T05:18:12;6.90;;;4.13;;
12120;SDS011;6124;59.460;17.908;2023-06-14T05:20:39;7.80;;;4.07;;
12120;SDS011;6124;59.460;17.908;2023-06-14T05:23:09;7.87;;;4.50;;
12120;SDS011;6124;59.460;17.908;2023-06-14T05:25:41;5.70;;;4.17;;
12120;SDS011;6124;59.460;17.908;2023-06-14T05:28:08;6.50;;;4.30;;
12120;SDS011;6124;59.460;17.908;2023-06-14T05:30:37;8.87;;;4.23;;
12120;SDS011;6124;59.460;17.908;2023-06-14T05:33:04;9.70;;;4.33;;
12120;SDS011;6124;59.460;17.908;2023-06-14T05:35:31;9.60;;;4.50;;
12120;SDS011;6124;59.460;17.908;2023-06-14T05:37:59;7.03;;;4.27;;
12120;SDS011;6124;59.460;17.908;2023-06-14T05:40:27;7.23;;;4.00;;
12120;SDS011;6124;59.460;17.908;2023-06-14T05:42:55;7.30;;;4.63;;
12120;SDS011;6124;59.460;17.908;2023-06-14T05:45:22;8.73;;;4.23;;
12120;SDS011;6124;59.460;17.908;2023-06-14T05:47:49;5.70;;;4.10;;
12120;SDS011;6124;59.460;17.908;2023-06-14T05:50:17;5.90;;;4.23;;
12120;SDS011;6124;59.460;17.908;2023-06-14T05:52:44;8.83;;;4.60;;
12120;SDS011;6124;59.460;17.908;2023-06-14T05:55:11;7.50;;;4.70;;
12120;SDS011;6124;59.460;17.908;2023-06-14T05:57:40;9.63;;;4.30;;
12120;SDS011;6124;59.460;17.908;2023-06-14T06:00:08;6.60;;;4.70;;
12120;SDS011;6124;59.460;17.908;2023-06-14T06:02:39;9.33;;;4.20;;
12120;SDS011;6124;59.460;17.908;2023-06-14T06:05:07;7.70;;;3.87;;
12120;SDS011;6124;59.460;17.908;2023-06-14T06:07:35;6.70;;;4.33;;
12120;SDS011;6124;59.460;17.908;2023-06-14T06:10:02;8.40;;;4.20;;
12120;SDS011;6124;59.460;17.908;2023-06-14T06:12:30;6.53;;;4.10;;
12120;SDS011;6124;59.460;17.908;2023-06-14T06:14:59;10.00;;;4.37;;
12120;SDS011;6124;59.460;17.908;2023-06-14T06:17:26;7.70;;;3.77;;
12120;SDS011;6124;59.460;17.908;2023-06-14T06:19:53;6.57;;;3.47;;
12120;SDS011;6124;59.460;17.908;2023-06-14T06:22:21;5.73;;;3.37;;
12120;SDS011;6124;59.460;17.908;2023-06-14T06:24:48;6.73;;;3.80;;
12120;SDS011;6124;59.460;17.908;2023-06-14T06:27:16;5.47;;;3.60;;
12120;SDS011;6124;59.460;17.908;2023-06-14T06:29:44;8.53;;;3.90;;
12120;SDS011;6124;59.460;17.908;2023-06-14T06:32:12;4.07;;;3.50;;
12120;SDS011;6124;59.460;17.908;2023-06-14T06:34:40;7.30;;;4.00;;
12120;SDS011;6124;59.460;17.908;2023-06-14T06:37:07;4.07;;;3.20;;
12120;SDS011;6124;59.460;17.908;2023-06-14T06:39:34;7.97;;;3.93;;
12120;SDS011;6124;59.460;17.908;2023-06-14T06:42:02;5.87;;;3.57;;
12120;SDS011;6124;59.460;17.908;2023-06-14T06:44:30;3.77;;;3.37;;
12120;SDS011;6124;59.460;17.908;2023-06-14T06:46:57;6.23;;;3.73;;
12120;SDS011;6124;59.460;17.908;2023-06-14T06:49:26;5.10;;;3.73;;
12120;SDS011;6124;59.460;17.908;2023-06-14T06:51:59;6.10;;;4.13;;
12120;SDS011;6124;59.460;17.908;2023-06-14T06:54:28;4.70;;;3.40;;
12120;SDS011;6124;59.460;17.908;2023-06-14T06:56:55;6.60;;;3.80;;
12120;SDS011;6124;59.460;17.908;2023-06-14T06:59:22;5.70;;;3.77;;
12120;SDS011;6124;59.460;17.908;2023-06-14T07:01:50;5.40;;;3.80;;
12120;SDS011;6124;59.460;17.908;2023-06-14T07:04:17;6.93;;;3.90;;
12120;SDS011;6124;59.460;17.908;2023-06-14T07:06:46;8.20;;;3.90;;
12120;SDS011;6124;59.460;17.908;2023-06-14T07:09:13;6.47;;;3.90;;
12120;SDS011;6124;59.460;17.908;2023-06-14T07:11:41;5.77;;;3.77;;
12120;SDS011;6124;59.460;17.908;2023-06-14T07:14:08;6.57;;;3.73;;
12120;SDS011;6124;59.460;17.908;2023-06-14T07:16:36;6.80;;;3.80;;
12120;SDS011;6124;59.460;17.908;2023-06-14T07:19:03;5.70;;;4.17;;
12120;SDS011;6124;59.460;17.908;2023-06-14T07:21:30;5.17;;;3.67;;
12120;SDS011;6124;59.460;17.908;2023-06-14T07:23:59;9.03;;;4.20;;
12120;SDS011;6124;59.460;17.908;2023-06-14T07:26:27;7.00;;;3.80;;
12120;SDS011;6124;59.460;17.908;2023-06-14T07:28:54;5.77;;;3.40;;
12120;SDS011;6124;59.460;17.908;2023-06-14T07:31:21;6.07;;;3.80;;
12120;SDS011;6124;59.460;17.908;2023-06-14T07:33:49;6.23;;;3.60;;
12120;SDS011;6124;59.460;17.908;2023-06-14T07:36:16;4.85;;;3.70;;
12120;SDS011;6124;59.460;17.908;2023-06-14T07:38:43;5.73;;;3.37;;
12120;SDS011;6124;59.460;17.908;2023-06-14T07:41:12;4.67;;;3.83;;
12120;SDS011;6124;59.460;17.908;2023-06-14T07:43:39;9.30;;;3.77;;
12120;SDS011;6124;59.460;17.908;2023-06-14T07:46:07;8.20;;;4.00;;
12120;SDS011;6124;59.460;17.908;2023-06-14T07:48:34;4.83;;;3.83;;
12120;SDS011;6124;59.460;17.908;2023-06-14T07:51:01;6.80;;;3.80;;
12120;SDS011;6124;59.460;17.908;2023-06-14T07:53:29;4.37;;;3.80;;
12120;SDS011;6124;59.460;17.908;2023-06-14T07:55:56;5.27;;;4.13;;
12120;SDS011;6124;59.460;17.908;2023-06-14T07:58:25;6.67;;;4.07;;
12120;SDS011;6124;59.460;17.908;2023-06-14T08:00:52;4.73;;;3.77;;
12120;SDS011;6124;59.460;17.908;2023-06-14T08:03:20;4.97;;;3.60;;
12120;SDS011;6124;59.460;17.908;2023-06-14T08:05:47;8.33;;;4.20;;
12120;SDS011;6124;59.460;17.908;2023-06-14T08:08:15;8.17;;;4.00;;
12120;SDS011;6124;59.460;17.908;2023-06-14T08:10:43;5.33;;;4.10;;
12120;SDS011;6124;59.460;17.908;2023-06-14T08:13:10;5.27;;;4.30;;
12120;SDS011;6124;59.460;17.908;2023-06-14T08:15:39;9.73;;;4.20;;
12120;SDS011;6124;59.460;17.908;2023-06-14T08:18:06;5.07;;;3.63;;
12120;SDS011;6124;59.460;17.908;2023-06-14T08:20:33;6.07;;;4.53;;
12120;SDS011;6124;59.460;17.908;2023-06-14T08:23:02;7.70;;;4.53;;
12120;SDS011;6124;59.460;17.908;2023-06-14T08:25:29;5.17;;;4.10;;
12120;SDS011;6124;59.460;17.908;2023-06-14T08:27:56;6.20;;;3.83;;
12120;SDS011;6124;59.460;17.908;2023-06-14T08:30:24;4.67;;;4.27;;
12120;SDS011;6124;59.460;17.908;2023-06-14T08:32:52;5.13;;;4.30;;
12120;SDS011;6124;59.460;17.908;2023-06-14T08:35:21;5.07;;;4.30;;
12120;SDS011;6124;59.460;17.908;2023-06-14T08:37:48;6.10;;;4.47;;
12120;SDS011;6124;59.460;17.908;2023-06-14T08:40:20;5.70;;;4.80;;
12120;SDS011;6124;59.460;17.908;2023-06-14T08:42:48;4.80;;;4.40;;
12120;SDS011;6124;59.460;17.908;2023-06-14T08:45:17;7.60;;;4.63;;
12120;SDS011;6124;59.460;17.908;2023-06-14T08:47:45;6.57;;;4.77;;
12120;SDS011;6124;59.460;17.908;2023-06-14T08:50:18;5.87;;;4.40;;
12120;SDS011;6124;59.460;17.908;2023-06-14T08:52:46;4.87;;;4.37;;
12120;SDS011;6124;59.460;17.908;2023-06-14T08:55:16;5.47;;;4.40;;
12120;SDS011;6124;59.460;17.908;2023-06-14T08:57:45;5.43;;;4.60;;
12120;SDS011;6124;59.460;17.908;2023-06-14T09:00:13;6.20;;;4.57;;
12120;SDS011;6124;59.460;17.908;2023-06-14T09:02:40;6.80;;;4.90;;
12120;SDS011;6124;59.460;17.908;2023-06-14T09:05:08;7.27;;;4.67;;
12120;SDS011;6124;59.460;17.908;2023-06-14T09:07:40;7.93;;;4.80;;
12120;SDS011;6124;59.460;17.908;2023-06-14T09:10:08;5.20;;;4.50;;
12120;SDS011;6124;59.460;17.908;2023-06-14T09:12:36;6.47;;;4.60;;
12120;SDS011;6124;59.460;17.908;2023-06-14T09:15:05;5.30;;;4.67;;
12120;SDS011;6124;59.460;17.908;2023-06-14T09:17:33;5.67;;;4.40;;
12120;SDS011;6124;59.460;17.908;2023-06-14T09:20:01;5.20;;;4.70;;
12120;SDS011;6124;59.460;17.908;2023-06-14T09:22:31;5.30;;;4.80;;
12120;SDS011;6124;59.460;17.908;2023-06-14T09:25:00;6.37;;;4.90;;
12120;SDS011;6124;59.460;17.908;2023-06-14T09:27:27;4.97;;;4.57;;
12120;SDS011;6124;59.460;17.908;2023-06-14T09:29:55;5.13;;;4.63;;
12120;SDS011;6124;59.460;17.908;2023-06-14T09:32:22;5.20;;;4.70;;
12120;SDS011;6124;59.460;17.908;2023-06-14T09:34:50;5.03;;;4.53;;
12120;SDS011;6124;59.460;17.908;2023-06-14T09:37:26;5.20;;;4.73;;
12120;SDS011;6124;59.460;17.908;2023-06-14T09:39:53;5.23;;;4.60;;
12120;SDS011;6124;59.460;17.908;2023-06-14T09:42:22;5.40;;;4.77;;
12120;SDS011;6124;59.460;17.908;2023-06-14T09:44:51;5.20;;;4.70;;
12120;SDS011;6124;59.460;17.908;2023-06-14T09:47:18;4.73;;;4.30;;
12120;SDS011;6124;59.460;17.908;2023-06-14T09:49:46;5.10;;;4.60;;
12120;SDS011;6124;59.460;17.908;2023-06-14T09:52:14;6.50;;;4.70;;
12120;SDS011;6124;59.460;17.908;2023-06-14T09:54:42;6.40;;;4.63;;
12120;SDS011;6124;59.460;17.908;2023-06-14T09:57:11;6.10;;;4.67;;
12120;SDS011;6124;59.460;17.908;2023-06-14T09:59:41;6.40;;;5.13;;
12120;SDS011;6124;59.460;17.908;2023-06-14T10:02:10;4.77;;;4.37;;
12120;SDS011;6124;59.460;17.908;2023-06-14T10:04:39;5.07;;;4.53;;
12120;SDS011;6124;59.460;17.908;2023-06-14T10:07:08;5.00;;;4.60;;
12120;SDS011;6124;59.460;17.908;2023-06-14T10:09:35;5.30;;;4.57;;
12120;SDS011;6124;59.460;17.908;2023-06-14T10:12:05;5.17;;;4.67;;
12120;SDS011;6124;59.460;17.908;2023-06-14T10:14:32;5.00;;;4.50;;
12120;SDS011;6124;59.460;17.908;2023-06-14T10:17:04;5.27;;;4.23;;
12120;SDS011;6124;59.460;17.908;2023-06-14T10:19:34;5.47;;;4.90;;
12120;SDS011;6124;59.460;17.908;2023-06-14T10:22:06;6.27;;;4.50;;
12120;SDS011;6124;59.460;17.908;2023-06-14T10:24:40;5.10;;;4.57;;
12120;SDS011;6124;59.460;17.908;2023-06-14T10:27:08;5.43;;;4.90;;
12120;SDS011;6124;59.460;17.908;2023-06-14T10:29:41;6.20;;;4.60;;
12120;SDS011;6124;59.460;17.908;2023-06-14T10:32:30;5.67;;;4.40;;
12120;SDS011;6124;59.460;17.908;2023-06-14T10:34:59;6.27;;;4.90;;
12120;SDS011;6124;59.460;17.908;2023-06-14T10:37:27;6.57;;;4.60;;
12120;SDS011;6124;59.460;17.908;2023-06-14T10:39:54;7.27;;;4.50;;
12120;SDS011;6124;59.460;17.908;2023-06-14T10:42:21;5.43;;;4.53;;
12120;SDS011;6124;59.460;17.908;2023-06-14T10:44:50;5.10;;;4.50;;
12120;SDS011;6124;59.460;17.908;2023-06-14T10:47:27;4.93;;;4.43;;
12120;SDS011;6124;59.460;17.908;2023-06-14T10:49:57;6.00;;;4.50;;
12120;SDS011;6124;59.460;17.908;2023-06-14T10:52:26;5.60;;;4.60;;
12120;SDS011;6124;59.460;17.908;2023-06-14T10:55:04;4.80;;;4.30;;
12120;SDS011;6124;59.460;17.908;2023-06-14T10:57:34;7.80;;;4.40;;
12120;SDS011;6124;59.460;17.908;2023-06-14T11:00:02;5.27;;;4.67;;
12120;SDS011;6124;59.460;17.908;2023-06-14T11:05:27;5.40;;;4.90;;
12120;SDS011;6124;59.460;17.908;2023-06-14T11:07:58;6.77;;;4.90;;
12120;SDS011;6124;59.460;17.908;2023-06-14T11:10:28;5.10;;;4.60;;
12120;SDS011;6124;59.460;17.908;2023-06-14T11:13:01;6.47;;;4.67;;
12120;SDS011;6124;59.460;17.908;2023-06-14T11:15:29;5.90;;;4.80;;
12120;SDS011;6124;59.460;17.908;2023-06-14T11:17:57;8.67;;;4.80;;
12120;SDS011;6124;59.460;17.908;2023-06-14T11:20:25;4.70;;;4.20;;
12120;SDS011;6124;59.460;17.908;2023-06-14T11:22:53;6.63;;;4.43;;
12120;SDS011;6124;59.460;17.908;2023-06-14T11:25:21;5.47;;;4.70;;
12120;SDS011;6124;59.460;17.908;2023-06-14T11:27:49;5.23;;;4.60;;
12120;SDS011;6124;59.460;17.908;2023-06-14T11:30:16;5.00;;;4.50;;
12120;SDS011;6124;59.460;17.908;2023-06-14T11:32:45;5.77;;;4.73;;
12120;SDS011;6124;59.460;17.908;2023-06-14T11:35:13;6.13;;;4.60;;
12120;SDS011;6124;59.460;17.908;2023-06-14T11:37:41;5.13;;;4.63;;
12120;SDS011;6124;59.460;17.908;2023-06-14T11:40:11;5.00;;;4.50;;
12120;SDS011;6124;59.460;17.908;2023-06-14T11:42:39;7.23;;;4.80;;
12120;SDS011;6124;59.460;17.908;2023-06-14T11:45:07;5.23;;;4.67;;
12120;SDS011;6124;59.460;17.908;2023-06-14T11:47:35;7.63;;;4.80;;
12120;SDS011;6124;59.460;17.908;2023-06-14T11:50:03;4.87;;;4.47;;
12120;SDS011;6124;59.460;17.908;2023-06-14T11:52:31;5.77;;;4.80;;
12120;SDS011;6124;59.460;17.908;2023-06-14T11:54:58;5.33;;;4.50;;
12120;SDS011;6124;59.460;17.908;2023-06-14T11:57:27;5.17;;;4.43;;
12120;SDS011;6124;59.460;17.908;2023-06-14T11:59:55;5.07;;;4.57;;
12120;SDS011;6124;59.460;17.908;2023-06-14T12:02:22;5.60;;;4.60;;
12120;SDS011;6124;59.460;17.908;2023-06-14T12:04:52;4.70;;;4.30;;
12120;SDS011;6124;59.460;17.908;2023-06-14T12:07:20;5.50;;;4.70;;
12120;SDS011;6124;59.460;17.908;2023-06-14T12:10:05;5.13;;;4.60;;
12120;SDS011;6124;59.460;17.908;2023-06-14T12:12:36;5.40;;;4.60;;
12120;SDS011;6124;59.460;17.908;2023-06-14T12:15:04;5.00;;;4.50;;
12120;SDS011;6124;59.460;17.908;2023-06-14T12:17:32;6.80;;;4.53;;
12120;SDS011;6124;59.460;17.908;2023-06-14T12:20:04;6.87;;;4.50;;
12120;SDS011;6124;59.460;17.908;2023-06-14T12:22:36;6.77;;;4.50;;
12120;SDS011;6124;59.460;17.908;2023-06-14T12:25:04;5.53;;;4.23;;
12120;SDS011;6124;59.460;17.908;2023-06-14T12:27:39;4.87;;;4.43;;
12120;SDS011;6124;59.460;17.908;2023-06-14T12:30:07;4.97;;;4.50;;
12120;SDS011;6124;59.460;17.908;2023-06-14T12:32:35;4.90;;;4.40;;
12120;SDS011;6124;59.460;17.908;2023-06-14T12:35:02;4.53;;;4.13;;
12120;SDS011;6124;59.460;17.908;2023-06-14T12:37:30;6.17;;;4.43;;
12120;SDS011;6124;59.460;17.908;2023-06-14T12:39:57;6.20;;;4.70;;
12120;SDS011;6124;59.460;17.908;2023-06-14T12:42:25;5.10;;;4.60;;
12120;SDS011;6124;59.460;17.908;2023-06-14T12:44:53;5.73;;;4.20;;
12120;SDS011;6124;59.460;17.908;2023-06-14T12:47:21;5.43;;;4.70;;
12120;SDS011;6124;59.460;17.908;2023-06-14T12:49:48;5.10;;;4.70;;
12120;SDS011;6124;59.460;17.908;2023-06-14T12:52:15;4.80;;;4.33;;
12120;SDS011;6124;59.460;17.908;2023-06-14T12:54:43;6.37;;;4.57;;
12120;SDS011;6124;59.460;17.908;2023-06-14T12:57:10;4.70;;;4.30;;
12120;SDS011;6124;59.460;17.908;2023-06-14T12:59:37;6.50;;;4.07;;
12120;SDS011;6124;59.460;17.908;2023-06-14T13:02:13;4.93;;;4.30;;
12120;SDS011;6124;59.460;17.908;2023-06-14T13:04:40;4.87;;;4.37;;
12120;SDS011;6124;59.460;17.908;2023-06-14T13:07:08;4.70;;;4.30;;
12120;SDS011;6124;59.460;17.908;2023-06-14T13:09:35;5.93;;;4.83;;
12120;SDS011;6124;59.460;17.908;2023-06-14T13:12:03;5.40;;;4.57;;
12120;SDS011;6124;59.460;17.908;2023-06-14T13:14:30;5.20;;;4.40;;
12120;SDS011;6124;59.460;17.908;2023-06-14T13:16:58;5.53;;;4.63;;
12120;SDS011;6124;59.460;17.908;2023-06-14T13:19:26;9.63;;;4.83;;
12120;SDS011;6124;59.460;17.908;2023-06-14T13:21:53;4.67;;;4.13;;
12120;SDS011;6124;59.460;17.908;2023-06-14T13:24:21;4.87;;;4.47;;
12120;SDS011;6124;59.460;17.908;2023-06-14T13:26:48;6.57;;;4.73;;
12120;SDS011;6124;59.460;17.908;2023-06-14T13:29:15;5.43;;;4.63;;
12120;SDS011;6124;59.460;17.908;2023-06-14T13:31:43;5.03;;;4.53;;
12120;SDS011;6124;59.460;17.908;2023-06-14T13:34:10;4.60;;;4.13;;
12120;SDS011;6124;59.460;17.908;2023-06-14T13:36:39;6.93;;;4.33;;
12120;SDS011;6124;59.460;17.908;2023-06-14T13:39:06;5.40;;;4.60;;
12120;SDS011;6124;59.460;17.908;2023-06-14T13:41:33;5.00;;;4.60;;
12120;SDS011;6124;59.460;17.908;2023-06-14T13:44:01;4.77;;;4.37;;
12120;SDS011;6124;59.460;17.908;2023-06-14T13:46:29;4.83;;;4.30;;
12120;SDS011;6124;59.460;17.908;2023-06-14T13:48:57;4.83;;;4.30;;
12120;SDS011;6124;59.460;17.908;2023-06-14T13:51:26;7.80;;;4.77;;
12120;SDS011;6124;59.460;17.908;2023-06-14T13:53:55;4.47;;;4.07;;
12120;SDS011;6124;59.460;17.908;2023-06-14T13:56:22;5.13;;;4.63;;
12120;SDS011;6124;59.460;17.908;2023-06-14T13:58:50;5.87;;;4.73;;
12120;SDS011;6124;59.460;17.908;2023-06-14T14:01:18;5.40;;;4.80;;
12120;SDS011;6124;59.460;17.908;2023-06-14T14:03:45;6.53;;;4.83;;
12120;SDS011;6124;59.460;17.908;2023-06-14T14:06:13;7.00;;;5.33;;
12120;SDS011;6124;59.460;17.908;2023-06-14T14:08:40;5.23;;;4.73;;
12120;SDS011;6124;59.460;17.908;2023-06-14T14:11:10;6.27;;;5.00;;
12120;SDS011;6124;59.460;17.908;2023-06-14T14:13:37;5.30;;;4.80;;
12120;SDS011;6124;59.460;17.908;2023-06-14T14:16:05;7.67;;;4.77;;
12120;SDS011;6124;59.460;17.908;2023-06-14T14:18:32;6.40;;;5.30;;
12120;SDS011;6124;59.460;17.908;2023-06-14T14:21:00;5.10;;;4.60;;
12120;SDS011;6124;59.460;17.908;2023-06-14T14:23:27;6.43;;;4.80;;
12120;SDS011;6124;59.460;17.908;2023-06-14T14:25:55;5.30;;;4.80;;
12120;SDS011;6124;59.460;17.908;2023-06-14T14:28:23;6.90;;;5.20;;
12120;SDS011;6124;59.460;17.908;2023-06-14T14:30:51;5.00;;;4.50;;
12120;SDS011;6124;59.460;17.908;2023-06-14T14:33:19;7.53;;;5.00;;
12120;SDS011;6124;59.460;17.908;2023-06-14T14:35:46;5.97;;;5.10;;
12120;SDS011;6124;59.460;17.908;2023-06-14T14:38:13;5.63;;;5.00;;
12120;SDS011;6124;59.460;17.908;2023-06-14T14:40:42;7.97;;;5.20;;
12120;SDS011;6124;59.460;17.908;2023-06-14T14:43:09;6.07;;;4.90;;
12120;SDS011;6124;59.460;17.908;2023-06-14T14:45:38;7.33;;;5.03;;
12120;SDS011;6124;59.460;17.908;2023-06-14T14:48:05;4.83;;;4.43;;
12120;SDS011;6124;59.460;17.908;2023-06-14T14:50:33;5.57;;;4.90;;
12120;SDS011;6124;59.460;17.908;2023-06-14T14:53:00;5.13;;;4.67;;
12120;SDS011;6124;59.460;17.908;2023-06-14T14:55:28;4.83;;;4.43;;
12120;SDS011;6124;59.460;17.908;2023-06-14T14:57:55;7.00;;;4.70;;